createdAt,value
2018-02-23T00:02:07.737Z,9.47
2018-02-23T00:04:40.283Z,9.37
2018-02-23T00:07:12.781Z,10.00
2018-02-23T00:09:45.313Z,8.87
2018-02-23T00:12:17.811Z,9.83
2018-02-23T00:14:50.327Z,9.80
2018-02-23T00:17:22.843Z,10.53
2018-02-23T00:19:55.364Z,9.83
2018-02-23T00:22:39.602Z,10.87
2018-02-23T00:25:12.128Z,11.00
2018-02-23T00:27:44.619Z,10.07
2018-02-23T00:30:17.147Z,11.43
2018-02-23T00:32:49.645Z,10.90
2018-02-23T00:35:22.181Z,11.13
2018-02-23T00:37:54.700Z,10.83
2018-02-23T00:40:27.223Z,12.53
2018-02-23T00:42:59.736Z,11.73
2018-02-23T00:45:32.277Z,12.17
2018-02-23T00:48:04.794Z,12.43
2018-02-23T00:50:38.365Z,12.90
2018-02-23T00:53:10.881Z,12.33
2018-02-23T00:55:43.403Z,12.13
2018-02-23T00:58:15.907Z,13.37
2018-02-23T01:00:48.440Z,12.80
2018-02-23T01:03:20.955Z,12.50
2018-02-23T01:05:53.481Z,12.60
2018-02-23T01:08:25.997Z,13.03
2018-02-23T01:10:58.526Z,14.27
2018-02-23T01:13:31.044Z,14.17
2018-02-23T01:16:03.566Z,15.13
2018-02-23T01:18:36.070Z,16.17
2018-02-23T01:21:08.591Z,16.17
2018-02-23T01:23:41.146Z,17.97
2018-02-23T01:26:13.681Z,17.70
2018-02-23T01:28:46.196Z,18.57
2018-02-23T01:31:18.707Z,17.43
2018-02-23T01:33:51.467Z,18.60
2018-02-23T01:36:24.212Z,19.27
2018-02-23T01:38:56.736Z,18.87
2018-02-23T01:41:29.263Z,20.30
2018-02-23T01:44:01.763Z,20.97
2018-02-23T01:46:34.286Z,21.23
2018-02-23T01:49:06.808Z,16.97
2018-02-23T01:51:39.338Z,20.63
2018-02-23T01:54:11.985Z,19.60
2018-02-23T01:56:44.501Z,21.83
2018-02-23T01:59:17.028Z,21.30
2018-02-23T02:01:49.551Z,20.60
2018-02-23T02:04:22.088Z,21.43
2018-02-23T02:06:54.585Z,19.73
2018-02-23T02:09:27.120Z,19.60
2018-02-23T02:11:59.623Z,21.60
2018-02-23T02:14:32.155Z,20.63
2018-02-23T02:17:04.662Z,22.37
2018-02-23T02:19:37.192Z,21.20
2018-02-23T02:22:09.724Z,21.87
2018-02-23T02:24:42.258Z,22.03
2018-02-23T02:27:14.780Z,21.90
2018-02-23T02:29:47.318Z,21.53
2018-02-23T02:32:19.823Z,20.27
2018-02-23T02:34:52.346Z,19.53
2018-02-23T02:37:24.849Z,20.97
2018-02-23T02:39:57.370Z,21.63
2018-02-23T02:42:29.891Z,21.93
2018-02-23T02:45:02.414Z,21.93
2018-02-23T02:47:34.918Z,21.10
2018-02-23T02:50:07.449Z,20.23
2018-02-23T02:52:39.948Z,19.70
2018-02-23T02:55:12.493Z,19.87
2018-02-23T02:57:46.095Z,19.57
2018-02-23T03:00:18.631Z,20.23
2018-02-23T03:02:51.133Z,18.20
2018-02-23T03:05:23.649Z,20.17
2018-02-23T03:07:56.158Z,20.00
2018-02-23T03:10:28.686Z,19.67
2018-02-23T03:13:01.183Z,21.43
2018-02-23T03:15:33.724Z,20.23
2018-02-23T03:18:06.233Z,19.53
2018-02-23T03:20:38.753Z,21.33
2018-02-23T03:23:11.259Z,20.70
2018-02-23T03:25:43.791Z,19.80
2018-02-23T03:28:16.286Z,19.80
2018-02-23T03:30:48.823Z,21.87
2018-02-23T03:33:21.317Z,19.87
2018-02-23T03:35:53.838Z,21.13
2018-02-23T03:38:26.351Z,20.13
2018-02-23T03:40:58.863Z,20.37
2018-02-23T03:43:31.354Z,21.30
2018-02-23T03:46:03.881Z,20.90
2018-02-23T03:48:36.387Z,19.77
2018-02-23T03:51:08.930Z,19.43
2018-02-23T03:53:41.464Z,19.07
2018-02-23T03:56:13.993Z,20.07
2018-02-23T03:58:46.504Z,17.73
2018-02-23T04:01:19.033Z,18.43
2018-02-23T04:03:51.560Z,20.37
2018-02-23T04:06:24.074Z,20.03
2018-02-23T04:08:56.966Z,20.03
2018-02-23T04:11:30.558Z,22.07
2018-02-23T04:14:03.152Z,20.83
2018-02-23T04:16:35.710Z,20.30
2018-02-23T04:19:08.214Z,20.37
2018-02-23T04:21:40.745Z,20.03
2018-02-23T04:24:13.255Z,19.77
2018-02-23T04:26:45.787Z,18.57
2018-02-23T04:29:18.284Z,19.33
2018-02-23T04:31:51.019Z,18.50
2018-02-23T04:34:23.516Z,20.30
2018-02-23T04:36:56.036Z,18.70
2018-02-23T04:39:28.552Z,20.17
2018-02-23T04:42:01.080Z,19.03
2018-02-23T04:44:33.573Z,18.93
2018-02-23T04:47:06.100Z,17.27
2018-02-23T04:49:41.963Z,17.83
2018-02-23T04:52:14.486Z,18.70
2018-02-23T04:54:46.982Z,17.97
2018-02-23T04:57:19.502Z,18.80
2018-02-23T04:59:52.002Z,17.87
2018-02-23T05:02:24.563Z,17.77
2018-02-23T05:04:57.045Z,16.57
2018-02-23T05:07:29.577Z,16.50
2018-02-23T05:10:02.109Z,15.23
2018-02-23T05:12:34.676Z,14.33
2018-02-23T05:15:07.182Z,12.20
2018-02-23T05:17:39.702Z,12.97
2018-02-23T05:20:12.208Z,12.20
2018-02-23T05:22:44.744Z,12.03
2018-02-23T05:25:18.100Z,12.10
2018-02-23T05:27:50.638Z,12.13
2018-02-23T05:30:23.163Z,11.10
2018-02-23T05:32:55.671Z,11.80
2018-02-23T05:35:28.198Z,11.07
2018-02-23T05:38:00.703Z,10.97
2018-02-23T05:40:33.218Z,9.80
2018-02-23T05:43:05.735Z,10.07
2018-02-23T05:45:38.256Z,9.80
2018-02-23T05:48:10.771Z,9.53
2018-02-23T05:50:43.296Z,9.67
2018-02-23T05:53:15.833Z,9.50
2018-02-23T05:55:48.352Z,8.93
2018-02-23T05:58:20.847Z,9.37
2018-02-23T06:00:53.369Z,7.67
2018-02-23T06:03:25.896Z,8.00
2018-02-23T06:05:58.412Z,9.00
2018-02-23T06:08:30.912Z,8.50
2018-02-23T06:11:03.446Z,9.63
2018-02-23T06:13:35.936Z,7.93
2018-02-23T06:16:14.185Z,9.00
2018-02-23T06:18:52.206Z,9.90
2018-02-23T06:21:24.721Z,7.87
2018-02-23T06:23:57.216Z,8.30
2018-02-23T06:26:29.747Z,8.83
2018-02-23T06:29:02.236Z,8.40
2018-02-23T06:31:34.758Z,8.97
2018-02-23T06:34:07.256Z,8.77
2018-02-23T06:36:39.788Z,8.90
2018-02-23T06:39:12.292Z,8.93
2018-02-23T06:41:44.821Z,8.90
2018-02-23T06:44:17.309Z,8.90
2018-02-23T06:46:55.477Z,9.13
2018-02-23T06:49:27.973Z,8.43
2018-02-23T06:52:00.493Z,9.07
2018-02-23T06:54:33.017Z,8.73
2018-02-23T06:57:05.535Z,9.10
2018-02-23T06:59:38.048Z,8.07
2018-02-23T07:02:10.573Z,8.80
2018-02-23T07:04:43.060Z,8.17
2018-02-23T07:07:15.585Z,7.60
2018-02-23T07:09:48.089Z,7.20
2018-02-23T07:12:20.603Z,7.03
2018-02-23T07:14:53.090Z,6.77
2018-02-23T07:17:25.621Z,7.33
2018-02-23T07:19:58.114Z,7.17
2018-02-23T07:22:30.644Z,7.40
2018-02-23T07:25:03.145Z,5.80
2018-02-23T07:27:35.665Z,7.20
2018-02-23T07:30:08.157Z,6.97
2018-02-23T07:32:40.677Z,8.17
2018-02-23T07:35:13.171Z,7.30
2018-02-23T07:37:45.680Z,7.70
2018-02-23T07:40:18.187Z,6.73
2018-02-23T07:42:50.691Z,7.40
2018-02-23T07:45:23.178Z,7.60
2018-02-23T07:47:55.717Z,6.23
2018-02-23T07:50:28.214Z,7.67
2018-02-23T07:53:00.746Z,8.33
2018-02-23T07:55:33.250Z,8.63
2018-02-23T07:58:05.775Z,8.37
2018-02-23T08:00:45.055Z,8.90
2018-02-23T08:03:17.598Z,8.60
2018-02-23T08:05:50.090Z,7.77
2018-02-23T08:08:22.610Z,10.23
2018-02-23T08:10:55.117Z,10.20
2018-02-23T08:13:27.648Z,10.17
2018-02-23T08:16:00.155Z,8.50
2018-02-23T08:18:32.671Z,7.17
2018-02-23T08:21:05.172Z,9.20
2018-02-23T08:23:37.683Z,7.77
2018-02-23T08:26:10.187Z,10.47
2018-02-23T08:28:42.694Z,6.80
2018-02-23T08:31:15.229Z,6.80
2018-02-23T08:33:47.751Z,11.90
2018-02-23T08:36:20.247Z,11.40
2018-02-23T08:38:52.769Z,9.77
2018-02-23T08:41:25.288Z,11.60
2018-02-23T08:43:57.813Z,9.73
2018-02-23T08:46:30.393Z,11.97
2018-02-23T08:49:02.912Z,10.00
2018-02-23T08:51:35.441Z,11.77
2018-02-23T08:54:07.940Z,11.83
2018-02-23T08:56:40.464Z,13.47
2018-02-23T08:59:12.970Z,12.50
2018-02-23T09:01:45.495Z,13.63
2018-02-23T09:04:18.003Z,11.60
2018-02-23T09:06:50.532Z,12.50
2018-02-23T09:09:23.030Z,12.43
2018-02-23T09:11:55.550Z,12.93
2018-02-23T09:14:28.061Z,14.10
2018-02-23T09:17:00.581Z,11.87
2018-02-23T09:19:33.085Z,13.40
2018-02-23T09:22:05.607Z,13.83
2018-02-23T09:24:38.146Z,13.27
2018-02-23T09:27:10.683Z,13.93
2018-02-23T09:29:43.188Z,12.60
2018-02-23T09:32:27.536Z,14.37
2018-02-23T09:35:00.044Z,13.83
2018-02-23T09:37:32.595Z,13.67
2018-02-23T09:40:05.113Z,12.23
2018-02-23T09:42:37.637Z,12.93
2018-02-23T09:45:10.154Z,14.07
2018-02-23T09:47:42.688Z,14.30
2018-02-23T09:50:15.250Z,14.13
2018-02-23T09:52:47.745Z,11.80
2018-02-23T09:55:20.244Z,14.10
2018-02-23T09:57:52.767Z,9.60
2018-02-23T10:00:25.276Z,13.83
2018-02-23T10:02:57.797Z,14.67
2018-02-23T10:05:30.310Z,12.87
2018-02-23T10:08:02.857Z,12.93
2018-02-23T10:10:35.390Z,13.90
2018-02-23T10:13:07.919Z,14.43
2018-02-23T10:15:40.446Z,13.20
2018-02-23T10:18:12.968Z,13.33
2018-02-23T10:20:45.472Z,12.77
2018-02-23T10:23:18.002Z,12.67
2018-02-23T10:25:50.508Z,9.63
2018-02-23T10:28:23.043Z,12.57
2018-02-23T10:30:55.543Z,13.60
2018-02-23T10:33:28.081Z,12.50
2018-02-23T10:36:00.587Z,14.03
2018-02-23T10:38:33.108Z,14.57
2018-02-23T10:41:05.604Z,12.90
2018-02-23T10:43:38.130Z,11.30
2018-02-23T10:46:10.638Z,13.60
2018-02-23T10:48:43.153Z,13.30
2018-02-23T10:51:15.656Z,12.77
2018-02-23T10:53:48.185Z,12.00
2018-02-23T10:56:20.717Z,13.53
2018-02-23T10:58:53.318Z,14.10
2018-02-23T11:01:25.819Z,13.27
2018-02-23T11:03:58.353Z,13.70
2018-02-23T11:06:30.937Z,13.57
2018-02-23T11:09:03.490Z,13.03
2018-02-23T11:11:36.003Z,14.30
2018-02-23T11:14:08.527Z,13.53
2018-02-23T11:16:41.036Z,13.83
2018-02-23T11:19:13.562Z,12.03
2018-02-23T11:21:46.075Z,14.63
2018-02-23T11:24:18.616Z,15.00
2018-02-23T11:26:51.116Z,14.77
2018-02-23T11:29:23.641Z,15.30
2018-02-23T11:31:56.161Z,15.40
2018-02-23T11:34:28.690Z,15.80
2018-02-23T11:37:01.208Z,13.97
2018-02-23T11:39:33.719Z,16.00
2018-02-23T11:42:06.227Z,19.13
2018-02-23T11:44:38.759Z,16.90
2018-02-23T11:47:11.278Z,16.27
2018-02-23T11:49:43.808Z,15.83
2018-02-23T11:52:16.316Z,17.43
2018-02-23T11:54:48.836Z,17.00
2018-02-23T11:57:27.083Z,16.53
2018-02-23T11:59:59.613Z,18.70
2018-02-23T12:02:32.132Z,18.27
2018-02-23T12:05:04.646Z,16.10
2018-02-23T12:07:37.172Z,18.77
2018-02-23T12:10:09.672Z,17.10
2018-02-23T12:12:42.192Z,18.87
2018-02-23T12:15:14.688Z,18.63
2018-02-23T12:17:47.346Z,18.90
2018-02-23T12:20:19.864Z,18.00
2018-02-23T12:22:52.394Z,19.23
2018-02-23T12:25:24.909Z,18.27
2018-02-23T12:27:57.452Z,18.40
2018-02-23T12:30:29.968Z,19.60
2018-02-23T12:33:02.494Z,19.63
2018-02-23T12:35:34.995Z,18.90
2018-02-23T12:38:07.536Z,18.13
2018-02-23T12:40:40.044Z,17.23
2018-02-23T12:43:12.552Z,17.23
2018-02-23T12:45:45.048Z,19.43
2018-02-23T12:48:19.587Z,18.27
2018-02-23T12:50:52.089Z,17.87
2018-02-23T12:53:24.634Z,19.27
2018-02-23T12:55:57.132Z,18.17
2018-02-23T12:58:29.686Z,16.27
2018-02-23T13:01:02.199Z,16.77
2018-02-23T13:03:34.750Z,19.80
2018-02-23T13:06:07.265Z,15.20
2018-02-23T13:08:39.790Z,18.63
2018-02-23T13:11:12.293Z,18.67
2018-02-23T13:13:44.816Z,19.00
2018-02-23T13:16:22.948Z,19.10
2018-02-23T13:18:55.532Z,19.10
2018-02-23T13:21:28.034Z,18.43
2018-02-23T13:24:00.556Z,17.53
2018-02-23T13:26:33.066Z,18.80
2018-02-23T13:29:05.584Z,17.67
2018-02-23T13:31:38.084Z,17.10
2018-02-23T13:34:10.599Z,18.07
2018-02-23T13:36:43.112Z,18.37
2018-02-23T13:39:15.650Z,18.80
2018-02-23T13:41:48.149Z,19.00
2018-02-23T13:44:20.682Z,18.33
2018-02-23T13:46:53.185Z,17.70
2018-02-23T13:49:25.706Z,18.60
2018-02-23T13:51:58.213Z,18.23
2018-02-23T13:54:30.740Z,18.23
2018-02-23T13:57:03.241Z,18.87
2018-02-23T13:59:35.767Z,16.37
2018-02-23T14:02:08.266Z,15.23
2018-02-23T14:04:40.795Z,15.57
2018-02-23T14:07:18.837Z,13.03
2018-02-23T14:09:51.358Z,15.67
2018-02-23T14:12:23.861Z,16.63
2018-02-23T14:14:56.385Z,16.67
2018-02-23T14:17:28.886Z,15.37
2018-02-23T14:20:01.411Z,15.37
2018-02-23T14:22:33.917Z,15.67
2018-02-23T14:25:06.434Z,15.93
2018-02-23T14:27:38.932Z,16.47
2018-02-23T14:30:11.449Z,16.80
2018-02-23T14:32:43.954Z,17.27
2018-02-23T14:35:16.510Z,18.23
2018-02-23T14:37:49.020Z,17.67
2018-02-23T14:40:21.546Z,15.17
2018-02-23T14:42:54.049Z,16.20
2018-02-23T14:45:26.569Z,17.20
2018-02-23T14:47:59.075Z,15.97
2018-02-23T14:53:36.896Z,12.90
2018-02-23T14:56:09.453Z,15.17
2018-02-23T14:58:41.961Z,14.17
2018-02-23T15:01:14.492Z,14.33
2018-02-23T15:03:47.011Z,14.50
2018-02-23T15:06:19.537Z,13.10
2018-02-23T15:08:52.036Z,12.23
2018-02-23T15:11:24.553Z,12.83
2018-02-23T15:13:57.060Z,10.30
2018-02-23T15:16:29.594Z,12.03
2018-02-23T15:19:02.129Z,12.73
2018-02-23T15:21:34.651Z,11.37
2018-02-23T15:24:07.160Z,12.47
2018-02-23T15:26:39.741Z,11.87
2018-02-23T15:29:12.241Z,12.10
2018-02-23T15:31:56.525Z,12.70
2018-02-23T15:34:29.032Z,11.37
2018-02-23T15:37:01.615Z,11.17
2018-02-23T15:39:34.108Z,11.60
2018-02-23T15:42:07.122Z,13.97
2018-02-23T15:44:39.732Z,18.90
2018-02-23T15:47:12.277Z,15.00
2018-02-23T15:49:59.298Z,47.37
2018-02-23T15:52:31.813Z,21.60
2018-02-23T15:55:04.341Z,14.30
2018-02-23T16:00:48.172Z,14.33
2018-02-23T16:03:20.682Z,13.83
2018-02-23T16:05:53.212Z,16.20
2018-02-23T16:08:25.725Z,11.57
2018-02-23T16:10:58.250Z,12.00
2018-02-23T16:13:30.757Z,10.97
2018-02-23T16:16:03.285Z,14.40
2018-02-23T16:18:35.782Z,11.20
2018-02-23T16:21:08.304Z,11.13
2018-02-23T16:23:40.816Z,10.33
2018-02-23T16:26:13.350Z,10.47
2018-02-23T16:28:45.859Z,10.37
2018-02-23T16:31:18.365Z,9.83
2018-02-23T16:33:50.876Z,10.67
2018-02-23T16:36:23.392Z,11.10
2018-02-23T16:38:55.887Z,10.33
2018-02-23T16:41:28.416Z,10.33
2018-02-23T16:44:00.908Z,9.87
2018-02-23T16:46:33.488Z,9.83
2018-02-23T16:49:05.989Z,10.10
2018-02-23T16:51:38.533Z,10.73
2018-02-23T16:54:11.047Z,9.57
2018-02-23T16:56:43.565Z,10.33
2018-02-23T16:59:16.060Z,9.93
2018-02-23T17:01:48.605Z,10.00
2018-02-23T17:04:21.099Z,9.40
2018-02-23T17:06:53.617Z,9.67
2018-02-23T17:09:26.123Z,9.23
2018-02-23T17:11:58.655Z,7.60
2018-02-23T17:14:31.152Z,9.00
2018-02-23T17:17:03.676Z,9.27
2018-02-23T17:19:36.172Z,8.93
2018-02-23T17:22:08.690Z,8.80
2018-02-23T17:24:41.192Z,8.17
2018-02-23T17:27:13.702Z,8.63
2018-02-23T17:29:46.226Z,8.93
2018-02-23T17:32:18.759Z,8.83
2018-02-23T17:34:51.249Z,8.00
2018-02-23T17:37:23.777Z,8.13
2018-02-23T17:39:56.308Z,7.33
2018-02-23T17:42:28.861Z,7.83
2018-02-23T17:45:01.365Z,9.13
2018-02-23T17:47:33.883Z,8.83
2018-02-23T17:50:06.378Z,8.80
2018-02-23T17:52:38.909Z,10.07
2018-02-23T17:55:11.412Z,8.50
2018-02-23T17:57:43.928Z,9.30
2018-02-23T18:00:16.510Z,8.53
2018-02-23T18:02:49.012Z,10.07
2018-02-23T18:05:21.522Z,7.67
2018-02-23T18:07:54.090Z,8.17
2018-02-23T18:10:26.622Z,9.20
2018-02-23T18:12:59.116Z,9.33
2018-02-23T18:15:31.629Z,8.17
2018-02-23T18:18:04.216Z,9.03
2018-02-23T18:20:36.739Z,9.00
2018-02-23T18:23:09.240Z,9.43
2018-02-23T18:25:41.764Z,9.93
2018-02-23T18:28:14.280Z,9.60
2018-02-23T18:30:46.798Z,9.00
2018-02-23T18:33:19.329Z,8.77
2018-02-23T18:35:51.865Z,9.67
2018-02-23T18:38:24.421Z,9.40
2018-02-23T18:40:56.946Z,9.20
2018-02-23T18:43:29.795Z,9.63
2018-02-23T18:46:02.320Z,10.00
2018-02-23T18:48:34.842Z,10.50
2018-02-23T18:51:07.373Z,11.43
2018-02-23T18:53:39.880Z,9.77
2018-02-23T18:56:12.395Z,9.77
2018-02-23T18:58:44.910Z,10.80
2018-02-23T19:01:17.429Z,10.23
2018-02-23T19:03:49.930Z,9.73
2018-02-23T19:06:22.458Z,9.40
2018-02-23T19:08:54.952Z,10.90
2018-02-23T19:11:27.494Z,9.17
2018-02-23T19:14:00.011Z,9.27
2018-02-23T19:16:32.568Z,9.20
2018-02-23T19:19:05.093Z,9.27
2018-02-23T19:21:37.624Z,9.37
2018-02-23T19:24:10.149Z,10.13
2018-02-23T19:26:42.831Z,9.50
2018-02-23T19:29:15.403Z,9.30
2018-02-23T19:31:47.944Z,9.07
2018-02-23T19:34:20.541Z,10.60
2018-02-23T19:36:53.061Z,9.80
2018-02-23T19:39:25.564Z,9.33
2018-02-23T19:41:58.081Z,8.90
2018-02-23T19:44:30.637Z,9.53
2018-02-23T19:47:03.155Z,8.80
2018-02-23T19:49:35.653Z,9.83
2018-02-23T19:52:08.177Z,9.60
2018-02-23T19:54:40.696Z,8.33
2018-02-23T19:57:13.269Z,10.33
2018-02-23T19:59:45.863Z,7.43
2018-02-23T20:02:18.393Z,9.30
2018-02-23T20:04:50.889Z,8.63
2018-02-23T20:07:23.679Z,9.37
2018-02-23T20:09:56.249Z,8.60
2018-02-23T20:12:28.774Z,8.87
2018-02-23T20:15:01.295Z,9.93
2018-02-23T20:17:33.816Z,8.97
2018-02-23T20:20:06.305Z,8.23
2018-02-23T20:22:38.931Z,9.30
2018-02-23T20:25:11.436Z,9.40
2018-02-23T20:27:43.955Z,9.40
2018-02-23T20:30:16.465Z,8.57
2018-02-23T20:32:48.976Z,9.10
2018-02-23T20:35:21.469Z,8.87
2018-02-23T20:37:53.996Z,10.23
2018-02-23T20:40:26.601Z,11.13
2018-02-23T20:43:01.061Z,13.70
2018-02-23T20:45:34.553Z,13.20
2018-02-23T20:48:07.101Z,13.40
2018-02-23T20:50:39.629Z,10.40
2018-02-23T20:53:12.218Z,10.00
2018-02-23T20:55:45.057Z,9.17
2018-02-23T20:58:18.030Z,8.67
2018-02-23T21:00:50.996Z,10.30
2018-02-23T21:03:23.920Z,9.07
2018-02-23T21:05:56.452Z,9.37
2018-02-23T21:08:28.970Z,9.63
2018-02-23T21:11:01.472Z,9.23
2018-02-23T21:13:34.001Z,9.50
2018-02-23T21:16:06.501Z,9.23
2018-02-23T21:18:39.012Z,9.60
2018-02-23T21:21:11.508Z,9.50
2018-02-23T21:23:44.032Z,9.37
2018-02-23T21:26:16.535Z,8.50
2018-02-23T21:28:49.070Z,10.33
2018-02-23T21:31:21.566Z,10.53
2018-02-23T21:33:54.092Z,9.83
2018-02-23T21:36:26.614Z,9.13
2018-02-23T21:38:59.107Z,8.97
2018-02-23T21:41:43.653Z,8.73
2018-02-23T21:44:16.158Z,8.90
2018-02-23T21:46:48.666Z,8.53
2018-02-23T21:49:21.235Z,8.20
2018-02-23T21:51:53.753Z,8.17
2018-02-23T21:54:26.240Z,7.07
2018-02-23T21:56:59.824Z,7.53
2018-02-23T21:59:32.342Z,7.67
2018-02-23T22:02:04.866Z,8.17
2018-02-23T22:04:37.371Z,8.10
2018-02-23T22:07:09.888Z,7.80
2018-02-23T22:09:42.417Z,8.80
2018-02-23T22:12:14.948Z,7.90
2018-02-23T22:14:47.454Z,8.43
2018-02-23T22:17:21.595Z,8.83
2018-02-23T22:19:54.094Z,8.40
2018-02-23T22:22:26.607Z,8.43
2018-02-23T22:24:59.116Z,8.10
2018-02-23T22:27:31.650Z,8.43
2018-02-23T22:30:04.189Z,8.83
2018-02-23T22:32:36.869Z,8.60
2018-02-23T22:35:09.357Z,8.50
2018-02-23T22:37:42.276Z,7.63
2018-02-23T22:40:14.781Z,7.40
2018-02-23T22:42:47.302Z,8.30
2018-02-23T22:45:19.877Z,7.73
2018-02-23T22:47:52.401Z,8.10
2018-02-23T22:50:24.895Z,8.57
2018-02-23T22:52:57.436Z,8.43
2018-02-23T22:55:29.936Z,8.63
2018-02-23T22:58:02.460Z,8.47
2018-02-23T23:00:35.107Z,10.07
2018-02-23T23:03:07.644Z,26.67
2018-02-23T23:05:40.186Z,20.87
2018-02-23T23:08:12.738Z,14.63
2018-02-23T23:10:45.288Z,9.90
2018-02-23T23:13:17.821Z,8.40
2018-02-23T23:15:50.316Z,8.73
2018-02-23T23:18:22.850Z,8.57
2018-02-23T23:20:55.376Z,8.47
2018-02-23T23:23:27.904Z,8.27
2018-02-23T23:26:00.464Z,8.20
2018-02-23T23:28:33.011Z,8.50
2018-02-23T23:31:05.715Z,9.03
2018-02-23T23:33:39.277Z,7.83
2018-02-23T23:36:11.813Z,8.47
2018-02-23T23:38:44.327Z,7.87
2018-02-23T23:41:16.828Z,8.80
2018-02-23T23:43:49.378Z,8.77
2018-02-23T23:46:21.877Z,8.50
2018-02-23T23:48:54.410Z,8.10
2018-02-23T23:51:26.936Z,8.40
2018-02-23T23:53:59.461Z,9.10
2018-02-23T23:56:31.971Z,8.30
2018-02-23T23:59:04.501Z,8.00
